createdAt,value
2018-09-11T00:00:11.270Z,33.1
2018-09-11T00:01:13.712Z,33.1
2018-09-11T00:02:16.137Z,33.2
2018-09-11T00:03:18.589Z,33.1
2018-09-11T00:04:21.022Z,33.2
2018-09-11T00:05:23.169Z,33.1
2018-09-11T00:06:25.616Z,33.2
2018-09-11T00:07:28.054Z,33.2
2018-09-11T00:08:30.489Z,33.2
2018-09-11T00:09:32.924Z,33.2
2018-09-11T00:10:35.362Z,33.1
2018-09-11T00:11:37.801Z,33.1
2018-09-11T00:12:40.236Z,33.2
2018-09-11T00:13:42.690Z,33.1
2018-09-11T00:14:44.842Z,33.1
2018-09-11T00:15:47.290Z,33.2
2018-09-11T00:16:49.443Z,33.3
2018-09-11T00:17:51.874Z,33.2
2018-09-11T00:18:54.311Z,33.2
2018-09-11T00:19:56.740Z,33.1
2018-09-11T00:20:59.172Z,33.2
2018-09-11T00:22:01.603Z,33.2
2018-09-11T00:23:04.042Z,33.3
2018-09-11T00:24:06.471Z,33.2
2018-09-11T00:25:08.903Z,33.1
2018-09-11T00:26:11.332Z,33.2
2018-09-11T00:27:13.759Z,33.2
2018-09-11T00:28:16.191Z,33.1
2018-09-11T00:29:18.623Z,33.3
2018-09-11T00:30:21.053Z,33.2
2018-09-11T00:31:23.516Z,33.3
2018-09-11T00:32:25.944Z,33.3
2018-09-11T00:33:28.387Z,33.2
2018-09-11T00:34:30.812Z,33.3
2018-09-11T00:35:33.257Z,33.2
2018-09-11T00:36:35.702Z,33.1
2018-09-11T00:37:38.138Z,33.2
2018-09-11T00:38:40.572Z,33.1
2018-09-11T00:39:42.999Z,33.2
2018-09-11T00:40:45.151Z,33.3
2018-09-11T00:41:47.582Z,33.1
2018-09-11T00:42:50.029Z,33.2
2018-09-11T00:43:52.470Z,33.1
2018-09-11T00:44:54.605Z,33.2
2018-09-11T00:45:57.037Z,33.2
2018-09-11T00:46:59.197Z,33.2
2018-09-11T00:48:01.637Z,33.2
2018-09-11T00:49:04.071Z,33.3
2018-09-11T00:50:06.505Z,33.2
2018-09-11T00:51:08.930Z,33.2
2018-09-11T00:52:11.359Z,33.1
2018-09-11T00:53:13.782Z,33.2
2018-09-11T00:54:16.212Z,33.2
2018-09-11T00:55:18.649Z,33.1
2018-09-11T00:56:20.809Z,33.1
2018-09-11T00:57:23.240Z,33
2018-09-11T00:58:25.673Z,33.1
2018-09-11T00:59:28.113Z,33
2018-09-11T01:00:30.555Z,33.1
2018-09-11T01:01:32.983Z,33.2
2018-09-11T01:02:35.410Z,33
2018-09-11T01:03:37.845Z,33.1
2018-09-11T01:04:40.293Z,33
2018-09-11T01:05:42.712Z,33
2018-09-11T01:06:44.854Z,33
2018-09-11T01:07:47.299Z,33
2018-09-11T01:08:49.729Z,32.9
2018-09-11T01:09:52.181Z,33
2018-09-11T01:10:54.609Z,33.1
2018-09-11T01:11:57.047Z,32.9
2018-09-11T01:12:59.482Z,33
2018-09-11T01:14:01.904Z,33
2018-09-11T01:15:04.335Z,33
2018-09-11T01:16:06.764Z,33
2018-09-11T01:17:09.207Z,33
2018-09-11T01:18:11.630Z,33
2018-09-11T01:19:14.065Z,33
2018-09-11T01:20:16.515Z,33
2018-09-11T01:21:18.945Z,32.9
2018-09-11T01:22:21.372Z,33.1
2018-09-11T01:23:23.824Z,32.9
2018-09-11T01:24:26.254Z,32.9
2018-09-11T01:25:28.685Z,32.9
2018-09-11T01:26:31.112Z,32.9
2018-09-11T01:27:33.544Z,32.9
2018-09-11T01:28:35.994Z,33
2018-09-11T01:29:38.434Z,32.9
2018-09-11T01:30:40.876Z,32.9
2018-09-11T01:31:43.302Z,32.9
2018-09-11T01:32:45.743Z,33
2018-09-11T01:33:48.180Z,32.9
2018-09-11T01:34:50.349Z,33
2018-09-11T01:35:52.834Z,32.8
2018-09-11T01:36:55.285Z,33
2018-09-11T01:37:57.729Z,33
2018-09-11T01:38:59.886Z,32.8
2018-09-11T01:40:02.326Z,32.9
2018-09-11T01:41:04.768Z,32.8
2018-09-11T01:42:07.192Z,32.9
2018-09-11T01:43:09.627Z,32.9
2018-09-11T01:44:12.054Z,32.9
2018-09-11T01:45:14.496Z,32.9
2018-09-11T01:46:16.954Z,32.8
2018-09-11T01:47:19.385Z,32.9
2018-09-11T01:48:21.819Z,33
2018-09-11T01:49:24.248Z,32.9
2018-09-11T01:50:26.683Z,32.8
2018-09-11T01:51:29.135Z,32.8
2018-09-11T01:52:31.565Z,32.9
2018-09-11T01:53:34.019Z,32.9
2018-09-11T01:54:36.459Z,32.8
2018-09-11T01:55:38.620Z,32.8
2018-09-11T01:56:41.052Z,32.9
2018-09-11T01:57:42.943Z,32.7
2018-09-11T01:58:45.379Z,33
2018-09-11T01:59:47.536Z,32.7
2018-09-11T02:00:49.966Z,32.8
2018-09-11T02:01:52.401Z,32.8
2018-09-11T02:02:54.822Z,32.7
2018-09-11T02:03:57.270Z,32.7
2018-09-11T02:04:59.703Z,32.7
2018-09-11T02:06:02.135Z,32.9
2018-09-11T02:07:04.573Z,32.7
2018-09-11T02:08:07.004Z,32.8
2018-09-11T02:09:09.436Z,32.7
2018-09-11T02:10:11.864Z,32.7
2018-09-11T02:11:14.295Z,32.7
2018-09-11T02:12:16.726Z,32.9
2018-09-11T02:13:19.168Z,32.8
2018-09-11T02:14:21.592Z,32.8
2018-09-11T02:15:24.036Z,32.8
2018-09-11T02:16:26.461Z,32.8
2018-09-11T02:17:28.896Z,32.8
2018-09-11T02:18:31.354Z,32.8
2018-09-11T02:19:33.788Z,32.6
2018-09-11T02:20:36.225Z,32.7
2018-09-11T02:21:38.394Z,32.8
2018-09-11T02:22:40.824Z,32.7
2018-09-11T02:23:43.244Z,32.7
2018-09-11T02:24:45.685Z,32.7
2018-09-11T02:25:48.116Z,32.8
2018-09-11T02:26:50.557Z,32.8
2018-09-11T02:27:52.996Z,32.8
2018-09-11T02:28:55.439Z,32.8
2018-09-11T02:29:57.904Z,32.8
2018-09-11T02:31:00.346Z,32.7
2018-09-11T02:32:02.226Z,32.7
2018-09-11T02:33:04.649Z,32.8
2018-09-11T02:34:07.090Z,32.7
2018-09-11T02:35:09.521Z,32.7
2018-09-11T02:36:11.958Z,32.8
2018-09-11T02:37:14.385Z,32.8
2018-09-11T02:38:16.811Z,32.6
2018-09-11T02:39:19.252Z,32.6
2018-09-11T02:40:21.695Z,32.7
2018-09-11T02:41:24.121Z,32.6
2018-09-11T02:42:26.281Z,32.7
2018-09-11T02:43:28.714Z,32.8
2018-09-11T02:44:31.141Z,32.6
2018-09-11T02:45:33.604Z,32.7
2018-09-11T02:46:36.040Z,32.8
2018-09-11T02:47:38.477Z,32.7
2018-09-11T02:48:40.959Z,32.6
2018-09-11T02:49:43.398Z,32.6
2018-09-11T02:50:45.824Z,32.7
2018-09-11T02:51:47.972Z,32.6
2018-09-11T02:52:50.406Z,32.6
2018-09-11T02:53:52.582Z,32.7
2018-09-11T02:54:55.034Z,32.6
2018-09-11T02:55:57.475Z,32.6
2018-09-11T02:56:59.912Z,32.7
2018-09-11T02:58:01.810Z,32.7
2018-09-11T02:59:04.246Z,32.7
2018-09-11T03:00:06.702Z,32.7
2018-09-11T03:01:09.160Z,32.6
2018-09-11T03:02:11.585Z,32.7
2018-09-11T03:03:14.022Z,32.6
2018-09-11T03:04:16.181Z,32.7
2018-09-11T03:05:18.339Z,32.6
2018-09-11T03:06:20.783Z,32.6
2018-09-11T03:07:23.209Z,32.5
2018-09-11T03:08:25.637Z,32.6
2018-09-11T03:09:27.824Z,32.6
2018-09-11T03:10:30.255Z,32.7
2018-09-11T03:11:32.681Z,32.7
2018-09-11T03:12:35.111Z,32.7
2018-09-11T03:13:37.546Z,32.6
2018-09-11T03:14:39.995Z,32.5
2018-09-11T03:15:42.428Z,32.6
2018-09-11T03:16:44.863Z,32.6
2018-09-11T03:17:47.282Z,32.6
2018-09-11T03:18:49.567Z,32.5
2018-09-11T03:19:52.396Z,32.7
2018-09-11T03:20:54.846Z,32.6
2018-09-11T03:21:57.306Z,32.6
2018-09-11T03:22:59.734Z,32.6
2018-09-11T03:24:02.184Z,32.6
2018-09-11T03:25:04.605Z,32.6
2018-09-11T03:26:07.040Z,32.6
2018-09-11T03:27:09.483Z,32.7
2018-09-11T03:28:11.913Z,32.6
2018-09-11T03:29:14.360Z,32.6
2018-09-11T03:30:16.791Z,32.6
2018-09-11T03:31:19.220Z,32.6
2018-09-11T03:32:21.650Z,32.7
2018-09-11T03:33:24.072Z,32.6
2018-09-11T03:34:26.503Z,32.6
2018-09-11T03:35:28.945Z,32.6
2018-09-11T03:36:31.372Z,32.7
2018-09-11T03:37:33.802Z,32.5
2018-09-11T03:38:36.252Z,32.6
2018-09-11T03:39:38.693Z,32.6
2018-09-11T03:40:41.114Z,32.6
2018-09-11T03:41:43.538Z,32.7
2018-09-11T03:42:45.962Z,32.6
2018-09-11T03:43:48.135Z,32.6
2018-09-11T03:44:50.265Z,32.7
2018-09-11T03:45:52.415Z,32.6
2018-09-11T03:46:54.587Z,32.7
2018-09-11T03:47:56.758Z,32.5
2018-09-11T03:48:58.903Z,32.6
2018-09-11T03:50:01.325Z,32.5
2018-09-11T03:51:03.754Z,32.6
2018-09-11T03:52:06.191Z,32.6
2018-09-11T03:53:08.630Z,32.6
2018-09-11T03:54:11.087Z,32.7
2018-09-11T03:55:13.540Z,32.6
2018-09-11T03:56:15.963Z,32.6
2018-09-11T03:57:18.425Z,32.7
2018-09-11T03:58:20.851Z,32.7
2018-09-11T03:59:23.455Z,32.7
2018-09-11T04:00:26.206Z,32.6
2018-09-11T04:01:28.642Z,32.6
2018-09-11T04:02:31.090Z,32.6
2018-09-11T04:03:33.524Z,32.6
2018-09-11T04:04:35.963Z,32.5
2018-09-11T04:05:38.705Z,32.7
2018-09-11T04:06:41.465Z,32.7
2018-09-11T04:07:43.902Z,32.6
2018-09-11T04:08:46.332Z,32.6
2018-09-11T04:09:48.767Z,32.6
2018-09-11T04:10:51.196Z,32.6
2018-09-11T04:11:53.645Z,32.5
2018-09-11T04:12:55.805Z,32.6
2018-09-11T04:13:58.241Z,32.7
2018-09-11T04:15:00.680Z,32.6
2018-09-11T04:16:03.167Z,32.7
2018-09-11T04:17:05.595Z,32.5
2018-09-11T04:18:08.033Z,32.7
2018-09-11T04:19:10.470Z,32.6
2018-09-11T04:20:12.914Z,32.6
2018-09-11T04:21:15.342Z,32.6
2018-09-11T04:22:17.772Z,32.6
2018-09-11T04:23:20.233Z,32.7
2018-09-11T04:24:22.669Z,32.7
2018-09-11T04:25:25.115Z,32.6
2018-09-11T04:26:27.619Z,32.6
2018-09-11T04:27:30.046Z,32.5
2018-09-11T04:28:32.480Z,32.6
2018-09-11T04:29:34.905Z,32.7
2018-09-11T04:30:37.345Z,32.6
2018-09-11T04:31:39.773Z,32.6
2018-09-11T04:32:42.217Z,32.6
2018-09-11T04:33:44.350Z,32.6
2018-09-11T04:34:46.795Z,32.6
2018-09-11T04:35:49.211Z,32.6
2018-09-11T04:36:51.644Z,32.6
2018-09-11T04:37:54.068Z,32.5
2018-09-11T04:38:56.512Z,32.6
2018-09-11T04:39:58.941Z,32.6
2018-09-11T04:41:01.388Z,32.6
2018-09-11T04:42:03.805Z,32.7
2018-09-11T04:43:06.356Z,32.6
2018-09-11T04:44:09.236Z,32.6
2018-09-11T04:45:11.656Z,32.6
2018-09-11T04:46:13.802Z,32.6
2018-09-11T04:47:15.963Z,32.6
2018-09-11T04:48:18.134Z,32.7
2018-09-11T04:49:20.579Z,32.6
2018-09-11T04:50:22.745Z,32.5
2018-09-11T04:51:25.169Z,32.6
2018-09-11T04:52:27.620Z,32.6
2018-09-11T04:53:30.053Z,32.5
2018-09-11T04:54:32.494Z,32.6
2018-09-11T04:55:34.939Z,32.7
2018-09-11T04:56:37.394Z,32.6
2018-09-11T04:57:39.550Z,32.6
2018-09-11T04:58:41.987Z,32.6
2018-09-11T04:59:44.141Z,32.5
2018-09-11T05:00:46.583Z,32.6
2018-09-11T05:01:48.753Z,32.6
2018-09-11T05:02:51.181Z,32.6
2018-09-11T05:03:53.614Z,32.6
2018-09-11T05:04:56.055Z,32.6
2018-09-11T05:05:58.504Z,32.5
2018-09-11T05:07:00.944Z,32.6
2018-09-11T05:08:03.393Z,32.6
2018-09-11T05:09:05.882Z,32.5
2018-09-11T05:10:08.337Z,32.6
2018-09-11T05:11:10.763Z,32.6
2018-09-11T05:12:12.953Z,32.6
2018-09-11T05:13:15.388Z,32.5
2018-09-11T05:14:17.825Z,32.7
2018-09-11T05:15:19.991Z,32.6
2018-09-11T05:16:22.438Z,32.6
2018-09-11T05:17:24.882Z,32.5
2018-09-11T05:18:27.324Z,32.5
2018-09-11T05:19:29.480Z,32.6
2018-09-11T05:20:31.904Z,32.5
2018-09-11T05:21:34.335Z,32.6
2018-09-11T05:22:36.781Z,32.6
2018-09-11T05:23:39.228Z,32.6
2018-09-11T05:24:41.664Z,32.7
2018-09-11T05:25:44.109Z,32.6
2018-09-11T05:26:46.534Z,32.5
2018-09-11T05:27:49.013Z,32.6
2018-09-11T05:28:51.431Z,32.6
2018-09-11T05:29:53.863Z,32.6
2018-09-11T05:30:56.306Z,32.6
2018-09-11T05:31:58.745Z,32.5
2018-09-11T05:33:01.168Z,32.6
2018-09-11T05:34:03.603Z,32.6
2018-09-11T05:35:06.037Z,32.7
2018-09-11T05:36:08.478Z,32.6
2018-09-11T05:37:10.920Z,32.5
2018-09-11T05:38:13.363Z,32.6
2018-09-11T05:39:15.796Z,32.6
2018-09-11T05:40:18.240Z,32.6
2018-09-11T05:41:20.726Z,32.6
2018-09-11T05:42:23.188Z,32.5
2018-09-11T05:43:25.617Z,32.5
2018-09-11T05:44:28.074Z,32.6
2018-09-11T05:45:30.507Z,32.6
2018-09-11T05:46:32.965Z,32.6
2018-09-11T05:47:35.429Z,32.4
2018-09-11T05:48:37.854Z,32.6
2018-09-11T05:49:39.995Z,32.6
2018-09-11T05:50:42.443Z,32.5
2018-09-11T05:51:44.878Z,32.5
2018-09-11T05:52:47.318Z,32.7
2018-09-11T05:53:49.732Z,32.6
2018-09-11T05:54:52.166Z,32.5
2018-09-11T05:55:54.591Z,32.5
2018-09-11T05:56:57.024Z,32.6
2018-09-11T05:57:59.470Z,32.6
2018-09-11T05:59:01.898Z,32.5
2018-09-11T06:00:04.325Z,32.6
2018-09-11T06:01:06.758Z,32.5
2018-09-11T06:02:09.195Z,32.6
2018-09-11T06:03:11.615Z,32.6
2018-09-11T06:04:14.051Z,32.6
2018-09-11T06:05:16.485Z,32.5
2018-09-11T06:06:18.924Z,32.6
2018-09-11T06:07:21.375Z,32.6
2018-09-11T06:08:23.537Z,32.6
2018-09-11T06:09:25.702Z,32.6
2018-09-11T06:10:28.194Z,32.6
2018-09-11T06:11:30.078Z,32.6
2018-09-11T06:12:32.510Z,32.6
2018-09-11T06:13:34.960Z,32.6
2018-09-11T06:14:37.415Z,32.6
2018-09-11T06:15:39.846Z,32.5
2018-09-11T06:16:42.303Z,32.6
2018-09-11T06:17:44.734Z,32.6
2018-09-11T06:18:47.183Z,32.6
2018-09-11T06:19:49.614Z,32.6
2018-09-11T06:20:52.047Z,32.6
2018-09-11T06:21:54.483Z,32.6
2018-09-11T06:22:56.922Z,32.5
2018-09-11T06:23:59.359Z,32.6
2018-09-11T06:25:01.796Z,32.7
2018-09-11T06:26:04.222Z,32.5
2018-09-11T06:27:06.656Z,32.6
2018-09-11T06:28:09.082Z,32.6
2018-09-11T06:29:11.554Z,32.6
2018-09-11T06:30:14.307Z,32.6
2018-09-11T06:31:16.753Z,32.7
2018-09-11T06:32:19.172Z,32.5
2018-09-11T06:33:21.667Z,32.5
2018-09-11T06:34:24.102Z,32.6
2018-09-11T06:35:26.630Z,32.6
2018-09-11T06:36:29.353Z,32.6
2018-09-11T06:37:31.780Z,32.5
2018-09-11T06:38:34.222Z,32.6
2018-09-11T06:39:36.650Z,32.5
2018-09-11T06:40:39.085Z,32.5
2018-09-11T06:41:41.534Z,32.5
2018-09-11T06:42:43.681Z,32.6
2018-09-11T06:43:46.115Z,32.5
2018-09-11T06:44:48.721Z,32.6
2018-09-11T06:45:51.072Z,32.7
2018-09-11T06:46:53.589Z,32.5
2018-09-11T06:47:56.112Z,32.6
2018-09-11T06:48:58.565Z,32.6
2018-09-11T06:50:01.011Z,32.6
2018-09-11T06:51:03.440Z,32.5
2018-09-11T06:52:05.865Z,32.6
2018-09-11T06:53:08.299Z,32.5
2018-09-11T06:54:10.743Z,32.5
2018-09-11T06:55:12.906Z,32.5
2018-09-11T06:56:15.382Z,32.6
2018-09-11T06:57:17.804Z,32.5
2018-09-11T06:58:20.244Z,32.6
2018-09-11T06:59:22.688Z,32.6
2018-09-11T07:00:25.124Z,32.5
2018-09-11T07:01:27.632Z,32.6
2018-09-11T07:02:30.052Z,32.5
2018-09-11T07:03:32.487Z,32.5
2018-09-11T07:04:34.936Z,32.6
2018-09-11T07:05:37.092Z,32.5
2018-09-11T07:06:39.523Z,32.5
2018-09-11T07:07:41.961Z,32.5
2018-09-11T07:08:44.104Z,32.6
2018-09-11T07:09:46.533Z,32.6
2018-09-11T07:10:48.983Z,32.6
2018-09-11T07:11:51.450Z,32.5
2018-09-11T07:12:53.927Z,32.5
2018-09-11T07:13:56.352Z,32.5
2018-09-11T07:14:58.776Z,32.6
2018-09-11T07:16:01.205Z,32.4
2018-09-11T07:17:03.642Z,32.5
2018-09-11T07:18:06.074Z,32.5
2018-09-11T07:19:08.515Z,32.5
2018-09-11T07:20:11.716Z,32.4
2018-09-11T07:21:15.821Z,32.5
2018-09-11T07:22:18.259Z,32.4
2018-09-11T07:23:20.719Z,32.6
2018-09-11T07:24:23.157Z,32.5
2018-09-11T07:25:25.604Z,32.6
2018-09-11T07:26:28.055Z,32.4
2018-09-11T07:27:30.494Z,32.5
2018-09-11T07:28:32.958Z,32.5
2018-09-11T07:29:35.386Z,32.5
2018-09-11T07:30:37.831Z,32.6
2018-09-11T07:31:40.271Z,32.5
2018-09-11T07:32:42.704Z,32.5
2018-09-11T07:33:45.145Z,32.5
2018-09-11T07:34:47.580Z,32.5
2018-09-11T07:35:50.009Z,32.5
2018-09-11T07:36:52.441Z,32.6
2018-09-11T07:37:55.023Z,32.5
2018-09-11T07:38:57.863Z,32.6
2018-09-11T07:40:00.291Z,32.5
2018-09-11T07:41:02.749Z,32.5
2018-09-11T07:42:05.180Z,32.5
2018-09-11T07:43:07.634Z,32.5
2018-09-11T07:44:09.825Z,32.5
2018-09-11T07:45:12.257Z,32.5
2018-09-11T07:46:14.684Z,32.5
2018-09-11T07:47:17.120Z,32.5
2018-09-11T07:48:19.546Z,32.4
2018-09-11T07:49:21.977Z,32.6
2018-09-11T07:50:24.413Z,32.5
2018-09-11T07:51:26.854Z,32.5
2018-09-11T07:52:29.464Z,32.5
2018-09-11T07:53:32.326Z,32.5
2018-09-11T07:54:34.773Z,32.5
2018-09-11T07:55:37.210Z,32.3
2018-09-11T07:56:39.640Z,32.6
2018-09-11T07:57:42.273Z,32.4
2018-09-11T07:58:45.234Z,32.6
2018-09-11T07:59:47.665Z,32.5
2018-09-11T08:00:49.826Z,32.5
2018-09-11T08:01:52.273Z,32.5
2018-09-11T08:02:54.716Z,32.5
2018-09-11T08:03:57.281Z,32.5
2018-09-11T08:04:59.761Z,32.4
2018-09-11T08:06:02.272Z,32.5
2018-09-11T08:07:04.718Z,32.6
2018-09-11T08:08:07.154Z,32.5
2018-09-11T08:09:09.587Z,32.5
2018-09-11T08:10:12.050Z,32.5
2018-09-11T08:11:14.493Z,32.5
2018-09-11T08:12:16.955Z,32.4
2018-09-11T08:13:19.397Z,32.5
2018-09-11T08:14:21.831Z,32.5
2018-09-11T08:15:24.278Z,32.5
2018-09-11T08:16:26.849Z,32.5
2018-09-11T08:17:29.476Z,32.6
2018-09-11T08:18:31.930Z,32.5
2018-09-11T08:19:34.359Z,32.4
2018-09-11T08:20:36.868Z,32.5
2018-09-11T08:21:39.322Z,32.6
2018-09-11T08:22:41.755Z,32.5
2018-09-11T08:23:44.203Z,32.6
2018-09-11T08:24:46.371Z,32.4
2018-09-11T08:25:48.819Z,32.5
2018-09-11T08:26:51.279Z,32.5
2018-09-11T08:27:53.705Z,32.5
2018-09-11T08:28:56.136Z,32.6
2018-09-11T08:29:58.582Z,32.5
2018-09-11T08:31:01.009Z,32.4
2018-09-11T08:32:03.452Z,32.5
2018-09-11T08:33:05.888Z,32.5
2018-09-11T08:34:08.326Z,32.4
2018-09-11T08:35:10.215Z,32.4
2018-09-11T08:36:12.661Z,32.5
2018-09-11T08:37:15.093Z,32.5
2018-09-11T08:38:17.525Z,32.4
2018-09-11T08:39:19.954Z,32.5
2018-09-11T08:40:22.108Z,32.5
2018-09-11T08:41:24.563Z,32.4
2018-09-11T08:42:26.994Z,32.6
2018-09-11T08:43:29.447Z,32.4
2018-09-11T08:44:31.880Z,32.4
2018-09-11T08:45:34.035Z,32.5
2018-09-11T08:46:36.638Z,32.4
2018-09-11T08:47:39.285Z,32.4
2018-09-11T08:48:41.766Z,32.5
2018-09-11T08:49:44.203Z,32.5
2018-09-11T08:50:46.689Z,32.5
2018-09-11T08:51:49.131Z,32.6
2018-09-11T08:52:51.740Z,32.5
2018-09-11T08:53:54.386Z,32.5
2018-09-11T08:54:56.553Z,32.5
2018-09-11T08:55:59.008Z,32.4
2018-09-11T08:57:01.442Z,32.6
2018-09-11T08:58:03.900Z,32.5
2018-09-11T08:59:06.319Z,32.4
2018-09-11T09:00:08.755Z,32.5
2018-09-11T09:01:11.204Z,32.6
2018-09-11T09:02:13.380Z,32.4
2018-09-11T09:03:15.842Z,32.6
2018-09-11T09:04:18.266Z,32.6
2018-09-11T09:05:20.719Z,32.4
2018-09-11T09:06:23.140Z,32.5
2018-09-11T09:07:25.577Z,32.6
2018-09-11T09:08:28.007Z,32.6
2018-09-11T09:09:30.437Z,32.6
2018-09-11T09:10:32.925Z,32.5
2018-09-11T09:11:35.371Z,32.6
2018-09-11T09:12:37.804Z,32.5
2018-09-11T09:13:40.255Z,32.4
2018-09-11T09:14:42.696Z,32.6
2018-09-11T09:15:45.415Z,32.6
2018-09-11T09:16:48.084Z,32.5
2018-09-11T09:17:50.516Z,32.6
2018-09-11T09:18:52.964Z,32.6
2018-09-11T09:19:55.389Z,32.6
2018-09-11T09:20:57.991Z,32.5
2018-09-11T09:22:00.737Z,32.6
2018-09-11T09:23:03.169Z,32.5
2018-09-11T09:24:05.597Z,32.6
2018-09-11T09:25:07.770Z,32.6
2018-09-11T09:26:10.254Z,32.6
2018-09-11T09:27:12.805Z,32.6
2018-09-11T09:28:15.444Z,32.5
2018-09-11T09:29:17.881Z,32.6
2018-09-11T09:30:20.316Z,32.5
2018-09-11T09:31:22.492Z,32.6
2018-09-11T09:32:24.925Z,32.5
2018-09-11T09:33:27.366Z,32.5
2018-09-11T09:34:29.824Z,32.6
2018-09-11T09:35:32.251Z,32.5
2018-09-11T09:36:34.785Z,32.5
2018-09-11T09:37:37.484Z,32.6
2018-09-11T09:38:39.915Z,32.6
2018-09-11T09:39:42.373Z,32.5
2018-09-11T09:40:44.806Z,32.5
2018-09-11T09:41:46.971Z,32.5
2018-09-11T09:42:48.891Z,32.6
2018-09-11T09:43:51.391Z,32.6
2018-09-11T09:44:53.942Z,32.6
2018-09-11T09:45:56.106Z,32.5
2018-09-11T09:46:58.546Z,32.6
2018-09-11T09:48:00.716Z,32.6
2018-09-11T09:49:02.881Z,32.6
2018-09-11T09:50:05.306Z,32.7
2018-09-11T09:51:07.748Z,32.6
2018-09-11T09:52:10.178Z,32.4
2018-09-11T09:53:12.613Z,32.6
2018-09-11T09:54:15.035Z,32.5
2018-09-11T09:55:17.467Z,32.6
2018-09-11T09:56:19.911Z,32.5
2018-09-11T09:57:22.360Z,32.4
2018-09-11T09:58:24.794Z,32.5
2018-09-11T09:59:27.231Z,32.7
2018-09-11T10:00:29.658Z,32.6
2018-09-11T10:01:32.105Z,32.6
2018-09-11T10:02:34.566Z,32.6
2018-09-11T10:03:37.006Z,32.6
2018-09-11T10:04:39.509Z,32.5
2018-09-11T10:05:41.987Z,32.5
2018-09-11T10:06:44.433Z,32.5
2018-09-11T10:07:46.604Z,32.6
2018-09-11T10:08:49.025Z,32.6
2018-09-11T10:09:51.483Z,32.6
2018-09-11T10:10:53.905Z,32.6
2018-09-11T10:11:56.375Z,32.5
2018-09-11T10:12:58.802Z,32.6
2018-09-11T10:14:01.259Z,32.6
2018-09-11T10:15:03.424Z,32.5
2018-09-11T10:16:05.890Z,32.7
2018-09-11T10:17:08.348Z,32.5
2018-09-11T10:18:10.786Z,32.6
2018-09-11T10:19:13.222Z,32.6
2018-09-11T10:20:15.653Z,32.6
2018-09-11T10:21:18.101Z,32.6
2018-09-11T10:22:20.536Z,32.5
2018-09-11T10:23:22.986Z,32.7
2018-09-11T10:24:25.416Z,32.5
2018-09-11T10:25:27.863Z,32.6
2018-09-11T10:26:30.298Z,32.5
2018-09-11T10:27:32.845Z,32.6
2018-09-11T10:28:35.406Z,32.5
2018-09-11T10:29:37.822Z,32.6
2018-09-11T10:30:39.983Z,32.6
2018-09-11T10:31:42.436Z,32.6
2018-09-11T10:32:44.877Z,32.5
2018-09-11T10:33:47.542Z,32.6
2018-09-11T10:34:50.310Z,32.5
2018-09-11T10:35:52.747Z,32.6
2018-09-11T10:36:55.196Z,32.6
2018-09-11T10:37:57.627Z,32.5
2018-09-11T10:39:00.078Z,32.6
2018-09-11T10:40:02.510Z,32.7
2018-09-11T10:41:04.933Z,32.5
2018-09-11T10:42:07.381Z,32.6
2018-09-11T10:43:09.811Z,32.6
2018-09-11T10:44:12.254Z,32.6
2018-09-11T10:45:14.686Z,32.5
2018-09-11T10:46:17.136Z,32.5
2018-09-11T10:47:19.579Z,32.5
2018-09-11T10:48:22.007Z,32.6
2018-09-11T10:49:24.151Z,32.6
2018-09-11T10:50:26.608Z,32.6
2018-09-11T10:51:29.031Z,32.6
2018-09-11T10:52:31.480Z,32.5
2018-09-11T10:53:33.937Z,32.5
2018-09-11T10:54:36.388Z,32.6
2018-09-11T10:55:38.276Z,32.6
2018-09-11T10:56:40.712Z,32.6
2018-09-11T10:57:43.157Z,32.5
2018-09-11T10:58:45.618Z,32.5
2018-09-11T10:59:48.044Z,32.7
2018-09-11T11:00:50.498Z,32.6
2018-09-11T11:01:52.939Z,32.5
2018-09-11T11:02:55.374Z,32.5
2018-09-11T11:03:57.817Z,32.5
2018-09-11T11:04:59.964Z,32.5
2018-09-11T11:06:02.408Z,32.6
2018-09-11T11:07:04.871Z,32.6
2018-09-11T11:08:07.314Z,32.6
2018-09-11T11:09:09.749Z,32.6
2018-09-11T11:10:12.181Z,32.6
2018-09-11T11:11:14.618Z,32.6
2018-09-11T11:12:17.053Z,32.6
2018-09-11T11:13:19.521Z,32.7
2018-09-11T11:14:21.962Z,32.6
2018-09-11T11:15:24.405Z,32.7
2018-09-11T11:16:26.848Z,32.6
2018-09-11T11:17:29.305Z,32.5
2018-09-11T11:18:31.738Z,32.7
2018-09-11T11:19:34.170Z,32.6
2018-09-11T11:20:36.599Z,32.6
2018-09-11T11:21:39.058Z,32.6
2018-09-11T11:22:41.483Z,32.7
2018-09-11T11:23:43.900Z,32.5
2018-09-11T11:24:46.340Z,32.7
2018-09-11T11:25:48.788Z,32.7
2018-09-11T11:26:51.309Z,32.6
2018-09-11T11:27:53.885Z,32.6
2018-09-11T11:28:56.320Z,32.6
2018-09-11T11:29:58.756Z,32.6
2018-09-11T11:31:01.200Z,32.6
2018-09-11T11:32:03.645Z,32.6
2018-09-11T11:33:06.068Z,32.5
2018-09-11T11:34:08.229Z,32.6
2018-09-11T11:35:10.407Z,32.6
2018-09-11T11:36:13.155Z,32.5
2018-09-11T11:37:16.410Z,32.6
2018-09-11T11:38:19.767Z,32.6
2018-09-11T11:39:22.209Z,32.6
2018-09-11T11:40:24.360Z,32.7
2018-09-11T11:41:26.801Z,32.6
2018-09-11T11:42:29.466Z,32.6
2018-09-11T11:43:32.003Z,32.6
2018-09-11T11:44:34.432Z,32.6
2018-09-11T11:45:36.867Z,32.6
2018-09-11T11:46:39.313Z,32.5
2018-09-11T11:47:41.758Z,32.5
2018-09-11T11:48:44.258Z,32.6
2018-09-11T11:49:46.689Z,32.5
2018-09-11T11:50:49.124Z,32.6
2018-09-11T11:51:51.566Z,32.7
2018-09-11T11:52:53.995Z,32.5
2018-09-11T11:53:56.448Z,32.6
2018-09-11T11:54:59.060Z,32.6
2018-09-11T11:56:01.437Z,32.7
2018-09-11T11:57:03.867Z,32.5
2018-09-11T11:58:06.342Z,32.6
2018-09-11T11:59:08.786Z,32.5
2018-09-11T12:00:11.219Z,32.7
2018-09-11T12:01:13.658Z,32.6
2018-09-11T12:02:16.086Z,32.6
2018-09-11T12:03:18.527Z,32.6
2018-09-11T12:04:20.959Z,32.6
2018-09-11T12:05:23.416Z,32.6
2018-09-11T12:06:25.607Z,32.5
2018-09-11T12:07:28.039Z,32.6
2018-09-11T12:08:30.478Z,32.5
2018-09-11T12:09:32.915Z,32.6
2018-09-11T12:10:35.067Z,32.6
2018-09-11T12:11:37.505Z,32.6
2018-09-11T12:12:39.947Z,32.6
2018-09-11T12:13:42.384Z,32.6
2018-09-11T12:14:44.871Z,32.7
2018-09-11T12:15:47.300Z,32.7
2018-09-11T12:16:49.828Z,32.6
2018-09-11T12:17:52.391Z,32.7
2018-09-11T12:18:54.831Z,32.7
2018-09-11T12:19:57.290Z,32.7
2018-09-11T12:20:59.767Z,32.8
2018-09-11T12:22:02.207Z,32.7
2018-09-11T12:23:04.632Z,32.7
2018-09-11T12:24:07.088Z,32.7
2018-09-11T12:25:09.251Z,32.7
2018-09-11T12:26:11.812Z,32.7
2018-09-11T12:27:14.489Z,32.7
2018-09-11T12:28:16.937Z,32.6
2018-09-11T12:29:19.361Z,32.8
2018-09-11T12:30:21.801Z,32.7
2018-09-11T12:31:24.308Z,32.6
2018-09-11T12:32:26.769Z,32.7
2018-09-11T12:33:28.910Z,32.7
2018-09-11T12:34:31.341Z,32.6
2018-09-11T12:35:33.795Z,32.7
2018-09-11T12:36:35.936Z,32.7
2018-09-11T12:37:38.355Z,32.6
2018-09-11T12:38:40.815Z,32.6
2018-09-11T12:39:43.273Z,32.7
2018-09-11T12:40:45.420Z,32.6
2018-09-11T12:41:47.875Z,32.9
2018-09-11T12:42:50.332Z,32.7
2018-09-11T12:43:52.509Z,32.6
2018-09-11T12:44:54.958Z,32.7
2018-09-11T12:45:57.756Z,32.7
2018-09-11T12:47:01.625Z,32.7
2018-09-11T12:48:06.753Z,32.9
2018-09-11T12:49:11.807Z,32.8
2018-09-11T12:50:14.265Z,32.6
2018-09-11T12:51:16.729Z,32.7
2018-09-11T12:52:19.175Z,32.8
2018-09-11T12:53:21.673Z,32.6
2018-09-11T12:54:23.568Z,32.7
2018-09-11T12:55:25.727Z,32.8
2018-09-11T12:56:28.170Z,32.8
2018-09-11T12:57:30.619Z,32.8
2018-09-11T12:58:33.052Z,32.7
2018-09-11T12:59:35.214Z,32.9
2018-09-11T13:00:37.669Z,32.8
2018-09-11T13:01:39.836Z,32.7
2018-09-11T13:02:42.324Z,32.7
2018-09-11T13:03:44.764Z,32.7
2018-09-11T13:04:47.213Z,32.7
2018-09-11T13:05:49.708Z,32.7
2018-09-11T13:06:52.123Z,32.9
2018-09-11T13:07:54.578Z,32.7
2018-09-11T13:08:57.109Z,32.8
2018-09-11T13:09:59.589Z,32.7
2018-09-11T13:11:02.069Z,32.7
2018-09-11T13:12:04.507Z,32.8
2018-09-11T13:13:06.952Z,32.8
2018-09-11T13:14:09.387Z,32.7
2018-09-11T13:15:11.972Z,32.7
2018-09-11T13:16:14.930Z,32.8
2018-09-11T13:17:17.346Z,32.8
2018-09-11T13:18:19.776Z,32.6
2018-09-11T13:19:22.209Z,32.7
2018-09-11T13:20:24.640Z,32.7
2018-09-11T13:21:27.073Z,32.8
2018-09-11T13:22:29.222Z,32.9
2018-09-11T13:23:31.684Z,32.8
2018-09-11T13:24:34.124Z,32.8
2018-09-11T13:25:36.554Z,32.6
2018-09-11T13:26:39.036Z,32.6
2018-09-11T13:27:41.465Z,32.7
2018-09-11T13:28:43.914Z,32.7
2018-09-11T13:29:46.394Z,32.6
2018-09-11T13:30:48.846Z,32.7
2018-09-11T13:31:51.289Z,32.9
2018-09-11T13:32:53.720Z,32.8
2018-09-11T13:33:56.450Z,32.8
2018-09-11T13:34:59.209Z,32.9
2018-09-11T13:36:01.643Z,32.9
2018-09-11T13:37:04.092Z,32.7
2018-09-11T13:38:06.533Z,32.8
2018-09-11T13:39:08.974Z,32.7
2018-09-11T13:40:11.416Z,32.8
2018-09-11T13:41:13.862Z,32.8
2018-09-11T13:42:16.017Z,32.7
2018-09-11T13:43:18.449Z,32.7
2018-09-11T13:44:20.878Z,32.7
2018-09-11T13:45:23.318Z,32.6
2018-09-11T13:46:25.767Z,32.8
2018-09-11T13:47:28.743Z,32.7
2018-09-11T13:48:32.138Z,32.6
2018-09-11T13:49:34.583Z,32.7
2018-09-11T13:50:37.028Z,32.7
2018-09-11T13:51:39.457Z,32.7
2018-09-11T13:52:41.890Z,32.7